首页
METAR-TAF:

METAR-TAF

机场 :

Watsonville Municipal Airport

Watsonville, 加利福尼亚州, 美国

纬度: 36-56-22N, 经度: 121-47-20W, 海拔: 49米

当前天气观测

该预报发布于23分钟前的23:36 UTC
风速8节,风向西南
温度 15°C
湿度 77%
气压 1016 hPa
能見度: 14.5公里
多云层高于1600英尺

METAR: KWVI 202336Z AUTO 23008KT 9SM BKN016 15/11 A3000 RMK AO2 T01500106

时间: 16:59 (23:59 UTC)


TAF: 丢失

超过4000个机场的气象观测和天气预报(METAR&TAF报告)。

可查询的气象台以黄色和红色小点在地图上表示。

将鼠标移到小点上方,可查看气象台名称。

然后点击查看天气观测和预报。

如需切换地图:点击带黑十字的绿色按钮放大地图;点击带横线的绿色按钮缩小地图;或者点击绿色箭头查看邻近地区的地图。


METAR-TAF: